sensor_id;sensor_type;location;lat;lon;timestamp;P1;durP1;ratioP1;P2;durP2;ratioP2
15486;SDS011;7845;53.698;10.078;2022-09-09T00:00:26;22.73;;;15.90;;
15486;SDS011;7845;53.698;10.078;2022-09-09T00:02:55;17.23;;;13.00;;
15486;SDS011;7845;53.698;10.078;2022-09-09T00:05:39;21.50;;;15.60;;
15486;SDS011;7845;53.698;10.078;2022-09-09T00:08:15;20.00;;;15.27;;
15486;SDS011;7845;53.698;10.078;2022-09-09T00:10:45;22.70;;;17.17;;
15486;SDS011;7845;53.698;10.078;2022-09-09T00:16:11;22.63;;;16.47;;
15486;SDS011;7845;53.698;10.078;2022-09-09T00:21:32;22.70;;;16.90;;
15486;SDS011;7845;53.698;10.078;2022-09-09T00:24:10;22.27;;;17.50;;
15486;SDS011;7845;53.698;10.078;2022-09-09T00:26:42;21.03;;;15.97;;
15486;SDS011;7845;53.698;10.078;2022-09-09T00:31:41;23.00;;;18.00;;
15486;SDS011;7845;53.698;10.078;2022-09-09T00:34:14;26.40;;;18.23;;
15486;SDS011;7845;53.698;10.078;2022-09-09T00:36:43;25.30;;;18.43;;
15486;SDS011;7845;53.698;10.078;2022-09-09T00:39:23;29.53;;;19.00;;
15486;SDS011;7845;53.698;10.078;2022-09-09T00:42:13;26.83;;;19.60;;
15486;SDS011;7845;53.698;10.078;2022-09-09T00:44:39;28.63;;;20.57;;
15486;SDS011;7845;53.698;10.078;2022-09-09T00:49:49;28.30;;;20.00;;
15486;SDS011;7845;53.698;10.078;2022-09-09T00:52:36;24.90;;;16.43;;
15486;SDS011;7845;53.698;10.078;2022-09-09T00:55:12;29.33;;;20.17;;
15486;SDS011;7845;53.698;10.078;2022-09-09T00:57:57;27.57;;;19.47;;
15486;SDS011;7845;53.698;10.078;2022-09-09T01:00:30;27.80;;;19.43;;
15486;SDS011;7845;53.698;10.078;2022-09-09T01:06:12;28.50;;;19.90;;
15486;SDS011;7845;53.698;10.078;2022-09-09T01:08:51;25.60;;;18.90;;
15486;SDS011;7845;53.698;10.078;2022-09-09T01:11:26;29.20;;;20.00;;
15486;SDS011;7845;53.698;10.078;2022-09-09T01:14:03;26.90;;;19.70;;
15486;SDS011;7845;53.698;10.078;2022-09-09T01:16:36;32.13;;;21.33;;
15486;SDS011;7845;53.698;10.078;2022-09-09T01:19:02;28.97;;;20.47;;
15486;SDS011;7845;53.698;10.078;2022-09-09T01:24:29;30.27;;;19.63;;
15486;SDS011;7845;53.698;10.078;2022-09-09T01:27:04;29.63;;;19.87;;
15486;SDS011;7845;53.698;10.078;2022-09-09T01:29:31;31.83;;;19.73;;
15486;SDS011;7845;53.698;10.078;2022-09-09T01:32:01;32.83;;;21.73;;
15486;SDS011;7845;53.698;10.078;2022-09-09T01:34:48;28.13;;;19.70;;
15486;SDS011;7845;53.698;10.078;2022-09-09T01:37:15;29.93;;;19.77;;
15486;SDS011;7845;53.698;10.078;2022-09-09T01:39:41;25.47;;;16.53;;
15486;SDS011;7845;53.698;10.078;2022-09-09T01:42:09;27.37;;;18.80;;
15486;SDS011;7845;53.698;10.078;2022-09-09T01:44:37;23.00;;;17.97;;
15486;SDS011;7845;53.698;10.078;2022-09-09T01:47:03;22.47;;;16.17;;
15486;SDS011;7845;53.698;10.078;2022-09-09T01:49:29;24.70;;;17.20;;
15486;SDS011;7845;53.698;10.078;2022-09-09T01:51:54;23.30;;;17.27;;
15486;SDS011;7845;53.698;10.078;2022-09-09T01:54:22;23.00;;;15.27;;
15486;SDS011;7845;53.698;10.078;2022-09-09T01:56:54;24.00;;;15.90;;
15486;SDS011;7845;53.698;10.078;2022-09-09T01:59:33;28.07;;;20.93;;
15486;SDS011;7845;53.698;10.078;2022-09-09T02:02:17;21.60;;;16.07;;
15486;SDS011;7845;53.698;10.078;2022-09-09T02:05:02;21.73;;;16.00;;
15486;SDS011;7845;53.698;10.078;2022-09-09T02:08:18;23.53;;;15.97;;
15486;SDS011;7845;53.698;10.078;2022-09-09T02:11:05;21.47;;;15.37;;
15486;SDS011;7845;53.698;10.078;2022-09-09T02:13:35;21.80;;;15.80;;
15486;SDS011;7845;53.698;10.078;2022-09-09T02:16:13;23.23;;;16.40;;
15486;SDS011;7845;53.698;10.078;2022-09-09T02:18:48;19.63;;;13.30;;
15486;SDS011;7845;53.698;10.078;2022-09-09T02:21:26;19.10;;;13.83;;
15486;SDS011;7845;53.698;10.078;2022-09-09T02:23:54;20.77;;;14.80;;
15486;SDS011;7845;53.698;10.078;2022-09-09T02:26:22;18.93;;;13.03;;
15486;SDS011;7845;53.698;10.078;2022-09-09T02:28:50;22.07;;;16.70;;
15486;SDS011;7845;53.698;10.078;2022-09-09T02:31:18;21.40;;;15.90;;
15486;SDS011;7845;53.698;10.078;2022-09-09T02:33:48;19.67;;;15.17;;
15486;SDS011;7845;53.698;10.078;2022-09-09T02:36:19;19.83;;;14.67;;
15486;SDS011;7845;53.698;10.078;2022-09-09T02:38:48;19.90;;;14.77;;
15486;SDS011;7845;53.698;10.078;2022-09-09T02:41:49;19.37;;;15.63;;
15486;SDS011;7845;53.698;10.078;2022-09-09T02:44:09;19.50;;;14.20;;
15486;SDS011;7845;53.698;10.078;2022-09-09T02:52:15;22.80;;;15.57;;
15486;SDS011;7845;53.698;10.078;2022-09-09T02:54:46;22.70;;;15.50;;
15486;SDS011;7845;53.698;10.078;2022-09-09T02:57:22;22.17;;;15.43;;
15486;SDS011;7845;53.698;10.078;2022-09-09T02:59:50;19.83;;;14.27;;
15486;SDS011;7845;53.698;10.078;2022-09-09T03:02:17;20.40;;;15.20;;
15486;SDS011;7845;53.698;10.078;2022-09-09T03:04:43;20.33;;;14.93;;
15486;SDS011;7845;53.698;10.078;2022-09-09T03:07:12;21.33;;;14.93;;
15486;SDS011;7845;53.698;10.078;2022-09-09T03:09:37;21.70;;;16.90;;
15486;SDS011;7845;53.698;10.078;2022-09-09T03:12:05;23.10;;;15.30;;
15486;SDS011;7845;53.698;10.078;2022-09-09T03:14:32;17.67;;;13.43;;
15486;SDS011;7845;53.698;10.078;2022-09-09T03:16:57;21.90;;;15.70;;
15486;SDS011;7845;53.698;10.078;2022-09-09T03:19:26;23.80;;;16.00;;
15486;SDS011;7845;53.698;10.078;2022-09-09T03:21:52;24.03;;;15.33;;
15486;SDS011;7845;53.698;10.078;2022-09-09T03:24:18;16.97;;;13.07;;
15486;SDS011;7845;53.698;10.078;2022-09-09T03:26:43;22.23;;;16.10;;
15486;SDS011;7845;53.698;10.078;2022-09-09T03:29:15;21.30;;;16.23;;
15486;SDS011;7845;53.698;10.078;2022-09-09T03:31:49;21.10;;;14.37;;
15486;SDS011;7845;53.698;10.078;2022-09-09T03:34:16;21.53;;;15.60;;
15486;SDS011;7845;53.698;10.078;2022-09-09T03:36:41;22.63;;;15.80;;
15486;SDS011;7845;53.698;10.078;2022-09-09T03:39:09;20.77;;;15.70;;
15486;SDS011;7845;53.698;10.078;2022-09-09T03:41:35;23.17;;;17.43;;
15486;SDS011;7845;53.698;10.078;2022-09-09T03:44:05;22.30;;;16.10;;
15486;SDS011;7845;53.698;10.078;2022-09-09T03:46:30;24.10;;;18.00;;
15486;SDS011;7845;53.698;10.078;2022-09-09T03:48:56;27.17;;;18.23;;
15486;SDS011;7845;53.698;10.078;2022-09-09T03:51:25;21.97;;;14.57;;
15486;SDS011;7845;53.698;10.078;2022-09-09T03:53:50;23.43;;;16.80;;
15486;SDS011;7845;53.698;10.078;2022-09-09T03:56:15;19.70;;;15.10;;
15486;SDS011;7845;53.698;10.078;2022-09-09T03:58:41;27.17;;;18.70;;
15486;SDS011;7845;53.698;10.078;2022-09-09T04:01:07;23.70;;;16.77;;
15486;SDS011;7845;53.698;10.078;2022-09-09T04:03:34;23.47;;;17.17;;
15486;SDS011;7845;53.698;10.078;2022-09-09T04:06:00;23.60;;;17.90;;
15486;SDS011;7845;53.698;10.078;2022-09-09T04:08:28;20.60;;;15.97;;
15486;SDS011;7845;53.698;10.078;2022-09-09T04:10:56;21.37;;;16.63;;
15486;SDS011;7845;53.698;10.078;2022-09-09T04:13:25;22.33;;;15.33;;
15486;SDS011;7845;53.698;10.078;2022-09-09T04:16:00;22.13;;;16.50;;
15486;SDS011;7845;53.698;10.078;2022-09-09T04:18:27;22.60;;;16.27;;
15486;SDS011;7845;53.698;10.078;2022-09-09T04:20:55;25.37;;;18.53;;
15486;SDS011;7845;53.698;10.078;2022-09-09T04:23:24;24.90;;;17.30;;
15486;SDS011;7845;53.698;10.078;2022-09-09T04:25:51;23.03;;;16.10;;
15486;SDS011;7845;53.698;10.078;2022-09-09T04:28:22;20.70;;;15.60;;
15486;SDS011;7845;53.698;10.078;2022-09-09T04:30:54;22.00;;;15.10;;
15486;SDS011;7845;53.698;10.078;2022-09-09T04:33:20;22.37;;;17.20;;
15486;SDS011;7845;53.698;10.078;2022-09-09T04:35:51;17.03;;;14.30;;
15486;SDS011;7845;53.698;10.078;2022-09-09T04:38:26;18.33;;;14.00;;
15486;SDS011;7845;53.698;10.078;2022-09-09T04:40:51;23.30;;;16.70;;
15486;SDS011;7845;53.698;10.078;2022-09-09T04:43:19;20.50;;;17.40;;
15486;SDS011;7845;53.698;10.078;2022-09-09T04:45:49;23.33;;;16.40;;
15486;SDS011;7845;53.698;10.078;2022-09-09T04:48:16;20.33;;;14.83;;
15486;SDS011;7845;53.698;10.078;2022-09-09T04:50:41;23.83;;;16.47;;
15486;SDS011;7845;53.698;10.078;2022-09-09T04:53:07;19.40;;;15.80;;
15486;SDS011;7845;53.698;10.078;2022-09-09T04:55:32;19.23;;;15.40;;
15486;SDS011;7845;53.698;10.078;2022-09-09T04:58:03;20.03;;;15.60;;
15486;SDS011;7845;53.698;10.078;2022-09-09T05:00:30;19.80;;;15.30;;
15486;SDS011;7845;53.698;10.078;2022-09-09T05:02:55;20.60;;;15.80;;
15486;SDS011;7845;53.698;10.078;2022-09-09T05:05:21;18.70;;;14.57;;
15486;SDS011;7845;53.698;10.078;2022-09-09T05:07:46;17.50;;;13.77;;
15486;SDS011;7845;53.698;10.078;2022-09-09T05:10:12;17.47;;;14.00;;
15486;SDS011;7845;53.698;10.078;2022-09-09T05:12:41;17.70;;;13.43;;
15486;SDS011;7845;53.698;10.078;2022-09-09T05:15:07;16.10;;;11.63;;
15486;SDS011;7845;53.698;10.078;2022-09-09T05:17:33;16.90;;;12.50;;
15486;SDS011;7845;53.698;10.078;2022-09-09T05:19:58;15.93;;;12.57;;
15486;SDS011;7845;53.698;10.078;2022-09-09T05:22:24;13.03;;;11.63;;
15486;SDS011;7845;53.698;10.078;2022-09-09T05:24:49;16.13;;;10.90;;
15486;SDS011;7845;53.698;10.078;2022-09-09T05:27:18;14.23;;;10.77;;
15486;SDS011;7845;53.698;10.078;2022-09-09T05:29:44;12.73;;;10.40;;
15486;SDS011;7845;53.698;10.078;2022-09-09T05:32:10;12.77;;;9.40;;
15486;SDS011;7845;53.698;10.078;2022-09-09T05:34:35;12.90;;;11.27;;
15486;SDS011;7845;53.698;10.078;2022-09-09T05:37:02;14.03;;;10.47;;
15486;SDS011;7845;53.698;10.078;2022-09-09T05:39:29;13.43;;;10.70;;
15486;SDS011;7845;53.698;10.078;2022-09-09T05:41:54;13.13;;;10.47;;
15486;SDS011;7845;53.698;10.078;2022-09-09T05:44:20;12.37;;;10.43;;
15486;SDS011;7845;53.698;10.078;2022-09-09T05:46:45;14.53;;;10.27;;
15486;SDS011;7845;53.698;10.078;2022-09-09T05:49:11;11.73;;;9.80;;
15486;SDS011;7845;53.698;10.078;2022-09-09T05:51:36;12.17;;;9.80;;
15486;SDS011;7845;53.698;10.078;2022-09-09T05:54:01;12.00;;;9.60;;
15486;SDS011;7845;53.698;10.078;2022-09-09T05:56:29;11.57;;;9.43;;
15486;SDS011;7845;53.698;10.078;2022-09-09T05:58:58;11.33;;;8.67;;
15486;SDS011;7845;53.698;10.078;2022-09-09T06:01:25;11.00;;;7.10;;
15486;SDS011;7845;53.698;10.078;2022-09-09T06:03:55;9.63;;;7.60;;
15486;SDS011;7845;53.698;10.078;2022-09-09T06:06:25;11.00;;;9.17;;
15486;SDS011;7845;53.698;10.078;2022-09-09T06:08:55;10.70;;;9.13;;
15486;SDS011;7845;53.698;10.078;2022-09-09T06:11:29;10.10;;;8.00;;
15486;SDS011;7845;53.698;10.078;2022-09-09T06:13:56;9.87;;;7.93;;
15486;SDS011;7845;53.698;10.078;2022-09-09T06:16:23;12.30;;;8.67;;
15486;SDS011;7845;53.698;10.078;2022-09-09T06:18:49;11.40;;;8.80;;
15486;SDS011;7845;53.698;10.078;2022-09-09T06:21:23;9.10;;;7.00;;
15486;SDS011;7845;53.698;10.078;2022-09-09T06:23:52;10.07;;;8.20;;
15486;SDS011;7845;53.698;10.078;2022-09-09T06:26:31;10.63;;;8.07;;
15486;SDS011;7845;53.698;10.078;2022-09-09T06:28:59;8.30;;;6.97;;
15486;SDS011;7845;53.698;10.078;2022-09-09T06:31:26;9.87;;;7.90;;
15486;SDS011;7845;53.698;10.078;2022-09-09T06:33:56;10.17;;;6.80;;
15486;SDS011;7845;53.698;10.078;2022-09-09T06:36:24;9.10;;;7.30;;
15486;SDS011;7845;53.698;10.078;2022-09-09T06:38:53;9.33;;;7.00;;
15486;SDS011;7845;53.698;10.078;2022-09-09T06:41:20;8.17;;;6.00;;
15486;SDS011;7845;53.698;10.078;2022-09-09T06:43:54;9.90;;;6.97;;
15486;SDS011;7845;53.698;10.078;2022-09-09T06:46:25;8.10;;;6.40;;
15486;SDS011;7845;53.698;10.078;2022-09-09T06:48:53;7.67;;;5.73;;
15486;SDS011;7845;53.698;10.078;2022-09-09T06:51:21;12.37;;;8.23;;
15486;SDS011;7845;53.698;10.078;2022-09-09T06:53:51;9.93;;;6.70;;
15486;SDS011;7845;53.698;10.078;2022-09-09T06:58:45;10.40;;;7.00;;
15486;SDS011;7845;53.698;10.078;2022-09-09T07:01:14;8.70;;;6.60;;
15486;SDS011;7845;53.698;10.078;2022-09-09T07:03:42;9.50;;;7.80;;
15486;SDS011;7845;53.698;10.078;2022-09-09T07:06:18;6.57;;;5.30;;
15486;SDS011;7845;53.698;10.078;2022-09-09T07:08:52;8.40;;;6.27;;
15486;SDS011;7845;53.698;10.078;2022-09-09T07:11:20;6.87;;;5.33;;
15486;SDS011;7845;53.698;10.078;2022-09-09T07:13:46;8.77;;;6.90;;
15486;SDS011;7845;53.698;10.078;2022-09-09T07:16:13;8.33;;;6.20;;
15486;SDS011;7845;53.698;10.078;2022-09-09T07:18:41;9.80;;;6.70;;
15486;SDS011;7845;53.698;10.078;2022-09-09T07:21:13;8.40;;;6.53;;
15486;SDS011;7845;53.698;10.078;2022-09-09T07:23:42;7.23;;;5.60;;
15486;SDS011;7845;53.698;10.078;2022-09-09T07:26:10;6.50;;;4.80;;
15486;SDS011;7845;53.698;10.078;2022-09-09T07:28:38;8.20;;;4.80;;
15486;SDS011;7845;53.698;10.078;2022-09-09T07:31:05;9.10;;;6.10;;
15486;SDS011;7845;53.698;10.078;2022-09-09T07:33:34;8.77;;;6.90;;
15486;SDS011;7845;53.698;10.078;2022-09-09T07:36:10;7.83;;;5.57;;
15486;SDS011;7845;53.698;10.078;2022-09-09T07:38:43;7.20;;;5.93;;
15486;SDS011;7845;53.698;10.078;2022-09-09T07:41:17;10.10;;;7.00;;
15486;SDS011;7845;53.698;10.078;2022-09-09T07:43:52;7.70;;;5.87;;
15486;SDS011;7845;53.698;10.078;2022-09-09T07:46:23;7.80;;;6.03;;
15486;SDS011;7845;53.698;10.078;2022-09-09T07:48:51;6.50;;;5.20;;
15486;SDS011;7845;53.698;10.078;2022-09-09T07:51:31;9.93;;;5.63;;
15486;SDS011;7845;53.698;10.078;2022-09-09T07:54:01;7.10;;;4.97;;
15486;SDS011;7845;53.698;10.078;2022-09-09T07:56:29;7.83;;;5.43;;
15486;SDS011;7845;53.698;10.078;2022-09-09T07:58:58;6.73;;;4.50;;
15486;SDS011;7845;53.698;10.078;2022-09-09T08:01:30;6.23;;;4.37;;
15486;SDS011;7845;53.698;10.078;2022-09-09T08:03:59;7.33;;;5.20;;
15486;SDS011;7845;53.698;10.078;2022-09-09T08:06:24;8.27;;;5.23;;
15486;SDS011;7845;53.698;10.078;2022-09-09T08:08:51;8.67;;;6.20;;
15486;SDS011;7845;53.698;10.078;2022-09-09T08:11:18;7.77;;;4.53;;
15486;SDS011;7845;53.698;10.078;2022-09-09T08:13:44;6.53;;;4.30;;
15486;SDS011;7845;53.698;10.078;2022-09-09T08:16:26;6.97;;;4.43;;
15486;SDS011;7845;53.698;10.078;2022-09-09T08:18:54;6.90;;;4.53;;
15486;SDS011;7845;53.698;10.078;2022-09-09T08:21:22;6.67;;;4.63;;
15486;SDS011;7845;53.698;10.078;2022-09-09T08:23:50;7.30;;;5.20;;
15486;SDS011;7845;53.698;10.078;2022-09-09T08:26:24;6.67;;;4.63;;
15486;SDS011;7845;53.698;10.078;2022-09-09T08:28:52;6.80;;;4.90;;
15486;SDS011;7845;53.698;10.078;2022-09-09T08:31:20;6.20;;;3.70;;
15486;SDS011;7845;53.698;10.078;2022-09-09T08:33:47;5.90;;;4.50;;
15486;SDS011;7845;53.698;10.078;2022-09-09T08:36:14;9.77;;;4.57;;
15486;SDS011;7845;53.698;10.078;2022-09-09T08:38:46;6.53;;;4.77;;
15486;SDS011;7845;53.698;10.078;2022-09-09T08:41:29;7.33;;;4.70;;
15486;SDS011;7845;53.698;10.078;2022-09-09T08:52:39;6.63;;;4.63;;
15486;SDS011;7845;53.698;10.078;2022-09-09T08:55:28;6.67;;;4.13;;
15486;SDS011;7845;53.698;10.078;2022-09-09T08:58:19;6.27;;;4.30;;
15486;SDS011;7845;53.698;10.078;2022-09-09T09:09:08;6.10;;;4.30;;
15486;SDS011;7845;53.698;10.078;2022-09-09T09:11:43;8.20;;;4.37;;
15486;SDS011;7845;53.698;10.078;2022-09-09T09:14:23;6.40;;;3.23;;
15486;SDS011;7845;53.698;10.078;2022-09-09T09:16:56;6.23;;;3.67;;
15486;SDS011;7845;53.698;10.078;2022-09-09T09:19:31;8.17;;;3.93;;
15486;SDS011;7845;53.698;10.078;2022-09-09T09:27:47;5.40;;;3.63;;
15486;SDS011;7845;53.698;10.078;2022-09-09T09:30:31;5.90;;;3.23;;
15486;SDS011;7845;53.698;10.078;2022-09-09T09:35:45;5.70;;;3.23;;
15486;SDS011;7845;53.698;10.078;2022-09-09T09:38:13;6.00;;;3.40;;
15486;SDS011;7845;53.698;10.078;2022-09-09T09:40:49;5.33;;;3.10;;
15486;SDS011;7845;53.698;10.078;2022-09-09T09:43:35;6.43;;;3.60;;
15486;SDS011;7845;53.698;10.078;2022-09-09T09:46:05;5.70;;;3.60;;
15486;SDS011;7845;53.698;10.078;2022-09-09T09:48:44;4.80;;;2.80;;
15486;SDS011;7845;53.698;10.078;2022-09-09T09:51:22;5.90;;;2.97;;
15486;SDS011;7845;53.698;10.078;2022-09-09T09:53:52;5.43;;;3.13;;
15486;SDS011;7845;53.698;10.078;2022-09-09T09:56:27;4.57;;;2.70;;
15486;SDS011;7845;53.698;10.078;2022-09-09T09:59:00;5.53;;;3.00;;
15486;SDS011;7845;53.698;10.078;2022-09-09T10:01:27;7.60;;;2.90;;
15486;SDS011;7845;53.698;10.078;2022-09-09T10:03:59;6.07;;;2.70;;
15486;SDS011;7845;53.698;10.078;2022-09-09T10:06:31;5.40;;;2.80;;
15486;SDS011;7845;53.698;10.078;2022-09-09T10:09:23;4.47;;;2.53;;
15486;SDS011;7845;53.698;10.078;2022-09-09T10:17:58;5.67;;;3.10;;
15486;SDS011;7845;53.698;10.078;2022-09-09T10:27:37;5.73;;;2.47;;
15486;SDS011;7845;53.698;10.078;2022-09-09T10:30:09;5.40;;;2.17;;
15486;SDS011;7845;53.698;10.078;2022-09-09T10:35:09;5.20;;;2.40;;
15486;SDS011;7845;53.698;10.078;2022-09-09T10:49:23;5.53;;;1.87;;
15486;SDS011;7845;53.698;10.078;2022-09-09T10:52:14;5.20;;;1.60;;
15486;SDS011;7845;53.698;10.078;2022-09-09T11:00:29;4.23;;;1.40;;
15486;SDS011;7845;53.698;10.078;2022-09-09T11:03:03;3.97;;;1.43;;
15486;SDS011;7845;53.698;10.078;2022-09-09T11:05:44;5.13;;;1.40;;
15486;SDS011;7845;53.698;10.078;2022-09-09T11:18:41;5.00;;;1.87;;
15486;SDS011;7845;53.698;10.078;2022-09-09T11:21:12;5.67;;;1.50;;
15486;SDS011;7845;53.698;10.078;2022-09-09T11:23:52;5.10;;;1.93;;
15486;SDS011;7845;53.698;10.078;2022-09-09T11:26:28;4.43;;;1.33;;
15486;SDS011;7845;53.698;10.078;2022-09-09T11:29:15;5.03;;;1.70;;
15486;SDS011;7845;53.698;10.078;2022-09-09T11:32:00;5.47;;;2.47;;
15486;SDS011;7845;53.698;10.078;2022-09-09T11:37:37;3.60;;;1.30;;
15486;SDS011;7845;53.698;10.078;2022-09-09T11:40:20;3.73;;;1.30;;
15486;SDS011;7845;53.698;10.078;2022-09-09T11:42:48;6.07;;;1.70;;
15486;SDS011;7845;53.698;10.078;2022-09-09T11:45:26;3.10;;;1.03;;
15486;SDS011;7845;53.698;10.078;2022-09-09T11:47:57;4.53;;;1.20;;
15486;SDS011;7845;53.698;10.078;2022-09-09T11:52:49;3.30;;;1.00;;
15486;SDS011;7845;53.698;10.078;2022-09-09T11:58:04;4.80;;;1.37;;
15486;SDS011;7845;53.698;10.078;2022-09-09T12:00:32;3.67;;;1.00;;
15486;SDS011;7845;53.698;10.078;2022-09-09T12:06:10;4.10;;;1.50;;
15486;SDS011;7845;53.698;10.078;2022-09-09T12:09:12;3.93;;;1.40;;
15486;SDS011;7845;53.698;10.078;2022-09-09T12:11:43;3.40;;;1.20;;
15486;SDS011;7845;53.698;10.078;2022-09-09T12:14:19;3.63;;;1.07;;
15486;SDS011;7845;53.698;10.078;2022-09-09T12:16:46;3.33;;;1.00;;
15486;SDS011;7845;53.698;10.078;2022-09-09T12:22:20;3.77;;;1.40;;
15486;SDS011;7845;53.698;10.078;2022-09-09T12:30:01;3.67;;;1.00;;
15486;SDS011;7845;53.698;10.078;2022-09-09T12:32:27;4.13;;;1.47;;
15486;SDS011;7845;53.698;10.078;2022-09-09T12:35:00;4.00;;;1.27;;
15486;SDS011;7845;53.698;10.078;2022-09-09T12:37:47;3.80;;;1.10;;
15486;SDS011;7845;53.698;10.078;2022-09-09T12:42:46;4.73;;;1.33;;
15486;SDS011;7845;53.698;10.078;2022-09-09T12:45:21;4.40;;;1.40;;
15486;SDS011;7845;53.698;10.078;2022-09-09T12:47:51;4.70;;;1.00;;
15486;SDS011;7845;53.698;10.078;2022-09-09T12:50:24;3.90;;;1.20;;
15486;SDS011;7845;53.698;10.078;2022-09-09T12:52:57;4.17;;;1.10;;
15486;SDS011;7845;53.698;10.078;2022-09-09T12:55:30;6.10;;;1.50;;
15486;SDS011;7845;53.698;10.078;2022-09-09T12:57:58;7.43;;;1.90;;
15486;SDS011;7845;53.698;10.078;2022-09-09T13:00:25;4.37;;;1.50;;
15486;SDS011;7845;53.698;10.078;2022-09-09T13:02:58;4.50;;;1.60;;
15486;SDS011;7845;53.698;10.078;2022-09-09T13:05:28;3.87;;;1.20;;
15486;SDS011;7845;53.698;10.078;2022-09-09T13:08:02;3.67;;;1.03;;
15486;SDS011;7845;53.698;10.078;2022-09-09T13:10:29;4.07;;;1.57;;
15486;SDS011;7845;53.698;10.078;2022-09-09T13:12:58;3.60;;;1.53;;
15486;SDS011;7845;53.698;10.078;2022-09-09T13:15:26;4.90;;;1.83;;
15486;SDS011;7845;53.698;10.078;2022-09-09T13:17:55;4.10;;;1.70;;
15486;SDS011;7845;53.698;10.078;2022-09-09T13:20:23;3.77;;;1.33;;
15486;SDS011;7845;53.698;10.078;2022-09-09T13:22:50;3.37;;;1.30;;
15486;SDS011;7845;53.698;10.078;2022-09-09T13:25:19;4.27;;;1.33;;
15486;SDS011;7845;53.698;10.078;2022-09-09T13:28:01;4.47;;;1.77;;
15486;SDS011;7845;53.698;10.078;2022-09-09T13:35:58;5.03;;;1.33;;
15486;SDS011;7845;53.698;10.078;2022-09-09T13:38:27;4.80;;;1.57;;
15486;SDS011;7845;53.698;10.078;2022-09-09T13:40:59;4.70;;;1.80;;
15486;SDS011;7845;53.698;10.078;2022-09-09T13:43:45;3.67;;;1.60;;
15486;SDS011;7845;53.698;10.078;2022-09-09T13:51:35;7.27;;;2.30;;
15486;SDS011;7845;53.698;10.078;2022-09-09T13:54:02;4.70;;;1.60;;
15486;SDS011;7845;53.698;10.078;2022-09-09T13:56:31;5.33;;;2.30;;
15486;SDS011;7845;53.698;10.078;2022-09-09T13:58:58;4.20;;;2.20;;
15486;SDS011;7845;53.698;10.078;2022-09-09T14:01:23;4.00;;;1.60;;
15486;SDS011;7845;53.698;10.078;2022-09-09T14:03:48;4.93;;;2.50;;
15486;SDS011;7845;53.698;10.078;2022-09-09T14:06:14;4.60;;;1.77;;
15486;SDS011;7845;53.698;10.078;2022-09-09T14:08:39;4.90;;;1.73;;
15486;SDS011;7845;53.698;10.078;2022-09-09T14:11:05;6.50;;;3.30;;
15486;SDS011;7845;53.698;10.078;2022-09-09T14:13:31;5.03;;;2.37;;
15486;SDS011;7845;53.698;10.078;2022-09-09T14:15:56;4.90;;;2.20;;
15486;SDS011;7845;53.698;10.078;2022-09-09T14:18:22;3.67;;;2.00;;
15486;SDS011;7845;53.698;10.078;2022-09-09T14:20:48;4.80;;;2.40;;
15486;SDS011;7845;53.698;10.078;2022-09-09T14:23:15;5.90;;;2.63;;
15486;SDS011;7845;53.698;10.078;2022-09-09T14:25:41;6.07;;;2.80;;
15486;SDS011;7845;53.698;10.078;2022-09-09T14:28:11;6.60;;;2.97;;
15486;SDS011;7845;53.698;10.078;2022-09-09T14:30:38;6.83;;;2.50;;
15486;SDS011;7845;53.698;10.078;2022-09-09T14:33:05;4.43;;;2.50;;
15486;SDS011;7845;53.698;10.078;2022-09-09T14:35:31;6.10;;;2.77;;
15486;SDS011;7845;53.698;10.078;2022-09-09T14:37:58;5.43;;;2.33;;
15486;SDS011;7845;53.698;10.078;2022-09-09T14:40:23;6.00;;;2.80;;
15486;SDS011;7845;53.698;10.078;2022-09-09T14:42:49;5.20;;;2.23;;
15486;SDS011;7845;53.698;10.078;2022-09-09T14:45:14;4.00;;;2.13;;
15486;SDS011;7845;53.698;10.078;2022-09-09T14:47:39;6.50;;;2.90;;
15486;SDS011;7845;53.698;10.078;2022-09-09T14:50:05;4.97;;;2.30;;
15486;SDS011;7845;53.698;10.078;2022-09-09T14:52:31;4.27;;;2.37;;
15486;SDS011;7845;53.698;10.078;2022-09-09T14:54:56;4.00;;;2.33;;
15486;SDS011;7845;53.698;10.078;2022-09-09T14:57:22;5.03;;;2.00;;
15486;SDS011;7845;53.698;10.078;2022-09-09T14:59:47;9.50;;;2.57;;
15486;SDS011;7845;53.698;10.078;2022-09-09T15:02:14;5.00;;;2.17;;
15486;SDS011;7845;53.698;10.078;2022-09-09T15:04:40;4.93;;;3.17;;
15486;SDS011;7845;53.698;10.078;2022-09-09T15:07:05;6.00;;;2.63;;
15486;SDS011;7845;53.698;10.078;2022-09-09T15:09:30;5.10;;;2.60;;
15486;SDS011;7845;53.698;10.078;2022-09-09T15:11:56;4.57;;;2.30;;
15486;SDS011;7845;53.698;10.078;2022-09-09T15:14:21;4.50;;;2.40;;
15486;SDS011;7845;53.698;10.078;2022-09-09T15:16:46;4.80;;;2.43;;
15486;SDS011;7845;53.698;10.078;2022-09-09T15:19:12;4.00;;;2.30;;
15486;SDS011;7845;53.698;10.078;2022-09-09T15:21:37;4.90;;;2.30;;
15486;SDS011;7845;53.698;10.078;2022-09-09T15:24:03;5.90;;;2.63;;
15486;SDS011;7845;53.698;10.078;2022-09-09T15:26:29;4.50;;;2.03;;
15486;SDS011;7845;53.698;10.078;2022-09-09T15:28:55;3.40;;;1.80;;
15486;SDS011;7845;53.698;10.078;2022-09-09T15:31:25;5.80;;;2.30;;
15486;SDS011;7845;53.698;10.078;2022-09-09T15:34:00;4.33;;;1.83;;
15486;SDS011;7845;53.698;10.078;2022-09-09T15:36:28;4.83;;;2.10;;
15486;SDS011;7845;53.698;10.078;2022-09-09T15:39:02;4.43;;;1.80;;
15486;SDS011;7845;53.698;10.078;2022-09-09T15:41:29;4.33;;;1.70;;
15486;SDS011;7845;53.698;10.078;2022-09-09T15:43:56;3.80;;;1.80;;
15486;SDS011;7845;53.698;10.078;2022-09-09T15:46:36;4.57;;;1.87;;
15486;SDS011;7845;53.698;10.078;2022-09-09T15:49:14;5.17;;;2.10;;
15486;SDS011;7845;53.698;10.078;2022-09-09T15:51:44;5.30;;;1.80;;
15486;SDS011;7845;53.698;10.078;2022-09-09T15:54:17;6.00;;;1.90;;
15486;SDS011;7845;53.698;10.078;2022-09-09T15:56:44;4.40;;;2.07;;
15486;SDS011;7845;53.698;10.078;2022-09-09T15:59:11;6.10;;;2.10;;
15486;SDS011;7845;53.698;10.078;2022-09-09T16:01:36;3.63;;;1.70;;
15486;SDS011;7845;53.698;10.078;2022-09-09T16:04:04;4.07;;;1.33;;
15486;SDS011;7845;53.698;10.078;2022-09-09T16:06:30;4.40;;;1.83;;
15486;SDS011;7845;53.698;10.078;2022-09-09T16:08:57;3.50;;;1.20;;
15486;SDS011;7845;53.698;10.078;2022-09-09T16:11:24;4.00;;;1.00;;
15486;SDS011;7845;53.698;10.078;2022-09-09T16:13:52;4.13;;;1.93;;
15486;SDS011;7845;53.698;10.078;2022-09-09T16:16:20;4.27;;;1.17;;
15486;SDS011;7845;53.698;10.078;2022-09-09T16:18:51;4.07;;;1.30;;
15486;SDS011;7845;53.698;10.078;2022-09-09T16:21:22;4.80;;;1.47;;
15486;SDS011;7845;53.698;10.078;2022-09-09T16:23:54;3.53;;;1.20;;
15486;SDS011;7845;53.698;10.078;2022-09-09T16:26:20;4.27;;;1.57;;
15486;SDS011;7845;53.698;10.078;2022-09-09T16:28:46;3.20;;;1.20;;
15486;SDS011;7845;53.698;10.078;2022-09-09T16:31:19;4.03;;;1.60;;
15486;SDS011;7845;53.698;10.078;2022-09-09T16:33:46;3.20;;;1.60;;
15486;SDS011;7845;53.698;10.078;2022-09-09T16:36:13;5.00;;;1.90;;
15486;SDS011;7845;53.698;10.078;2022-09-09T16:38:41;3.83;;;1.60;;
15486;SDS011;7845;53.698;10.078;2022-09-09T16:41:08;4.30;;;1.50;;
15486;SDS011;7845;53.698;10.078;2022-09-09T16:43:35;4.07;;;1.63;;
15486;SDS011;7845;53.698;10.078;2022-09-09T16:46:01;5.17;;;2.07;;
15486;SDS011;7845;53.698;10.078;2022-09-09T16:48:42;4.53;;;1.63;;
15486;SDS011;7845;53.698;10.078;2022-09-09T16:51:11;4.00;;;1.83;;
15486;SDS011;7845;53.698;10.078;2022-09-09T16:53:49;5.03;;;1.90;;
15486;SDS011;7845;53.698;10.078;2022-09-09T16:56:19;3.60;;;1.80;;
15486;SDS011;7845;53.698;10.078;2022-09-09T16:58:50;4.20;;;1.80;;
15486;SDS011;7845;53.698;10.078;2022-09-09T17:01:17;3.83;;;1.70;;
15486;SDS011;7845;53.698;10.078;2022-09-09T17:03:43;4.10;;;1.60;;